Preview of NWS' New Version of Forecast
This preview is not operational and should not be used for support decisions.

Terminal Aerodrome Forecast (TAF)

Issued by National Weather Service (NWS)

                            
000
FTUS42 KKEY 200914 AAA
TAFMTH
TAF AMD
KMTH 200914Z 2009/2106 21010KT P6SM VCSH SCT020 SCT040 BKN250
     FM201200 24015G25KT P6SM VCTS SCT012CB BKN040
      TEMPO 2012/2014 27017G27KT 1SM TSRA BR BKN010CB BKN040
     FM201400 31015G25KT 4SM SHRA BKN015 OVC025
     FM201800 31016G26KT P6SM BKN017 OVC030=